Time;durP1;ratioP1;P1;durP2;ratioP2;P2;SDS_P1;SDS_P2;PMS_P1;PMS_P2;Temp;Humidity;BMP_temperature;BMP_pressure;BME280_temperature;BME280_humidity;BME280_pressure;Samples;Min_cycle;Max_cycle;Signal;HPM_P1;HPM_P2
2022/07/24 00:00:51;;;;;;;8.60;5.65;;;16.00;99.90;;;;;;5057582;28;20048;-79
2022/07/24 00:03:17;;;;;;;8.38;5.22;;;16.00;99.90;;;;;;5093112;28;20028;-79
2022/07/24 00:05:42;;;;;;;7.40;5.28;;;16.00;99.90;;;;;;5057904;28;20123;-79
2022/07/24 00:08:08;;;;;;;7.35;5.60;;;16.00;99.90;;;;;;5092563;28;20032;-79
2022/07/24 00:10:33;;;;;;;7.10;5.50;;;16.00;99.90;;;;;;5074122;28;20065;-79
2022/07/24 00:12:59;;;;;;;8.40;5.25;;;16.00;99.90;;;;;;5057922;28;20375;-79
2022/07/24 00:15:24;;;;;;;8.13;5.28;;;16.00;99.90;;;;;;5058028;28;20448;-79
2022/07/24 00:17:53;;;;;;;8.98;5.20;;;16.00;99.90;;;;;;5092551;28;20051;-79
2022/07/24 00:20:18;;;;;;;6.97;5.53;;;16.00;99.90;;;;;;5074305;28;20121;-79
2022/07/24 00:22:44;;;;;;;8.95;5.28;;;16.00;99.90;;;;;;5074095;28;20105;-79
2022/07/24 00:25:10;;;;;;;8.32;6.20;;;16.00;99.90;;;;;;5057348;28;20461;-79
2022/07/24 00:27:35;;;;;;;6.45;5.22;;;16.00;99.90;;;;;;5074231;28;20159;-79
2022/07/24 00:30:02;;;;;;;9.50;5.82;;;16.00;99.90;;;;;;5074376;28;20036;-79
2022/07/24 00:32:28;;;;;;;9.85;5.53;;;16.00;99.90;;;;;;5092570;28;20040;-79
2022/07/24 00:34:53;;;;;;;7.80;5.65;;;15.90;99.90;;;;;;5074943;28;20113;-79
2022/07/24 00:37:19;;;;;;;8.90;6.00;;;16.00;99.90;;;;;;5058361;28;20116;-79
2022/07/24 00:39:47;;;;;;;8.73;5.90;;;16.00;99.90;;;;;;5057679;28;20090;-79
2022/07/24 00:42:13;;;;;;;7.43;5.50;;;15.90;99.90;;;;;;5091707;28;20040;-79
2022/07/24 00:44:38;;;;;;;7.45;6.03;;;16.00;99.90;;;;;;5092161;28;20036;-79
2022/07/24 00:47:04;;;;;;;7.28;5.50;;;16.00;99.90;;;;;;5092066;28;20032;-80
2022/07/24 00:49:30;;;;;;;9.35;6.38;;;16.00;99.90;;;;;;5091929;28;20036;-80
2022/07/24 00:51:56;;;;;;;7.05;5.25;;;15.90;99.90;;;;;;5074434;28;20465;-79
2022/07/24 00:54:22;;;;;;;10.57;5.82;;;15.90;99.90;;;;;;5092428;28;20465;-79
2022/07/24 00:56:51;;;;;;;7.63;5.35;;;15.90;99.90;;;;;;5057664;28;20040;-79
2022/07/24 00:59:18;;;;;;;8.45;5.80;;;15.90;99.90;;;;;;5092378;28;20040;-79
2022/07/24 01:01:44;;;;;;;8.43;6.07;;;15.90;99.90;;;;;;5074254;28;20113;-79
2022/07/24 01:04:10;;;;;;;7.55;6.15;;;15.80;99.90;;;;;;5074018;28;20044;-79
2022/07/24 01:06:36;;;;;;;7.80;4.95;;;15.80;99.90;;;;;;5074378;28;20036;-79
2022/07/24 01:09:02;;;;;;;11.30;5.85;;;15.80;99.90;;;;;;5057488;28;20035;-79
2022/07/24 01:11:28;;;;;;;11.93;5.93;;;15.80;99.90;;;;;;5065676;28;20036;-79
2022/07/24 01:13:54;;;;;;;8.75;5.68;;;15.80;99.90;;;;;;5080015;28;20105;-78
2022/07/24 01:16:20;;;;;;;7.53;5.85;;;15.80;99.90;;;;;;5078554;28;20028;-79
2022/07/24 01:18:45;;;;;;;7.25;5.53;;;15.80;99.90;;;;;;5076992;28;20660;-79
2022/07/24 01:21:11;;;;;;;10.63;5.78;;;15.80;99.90;;;;;;5072648;28;20128;-79
2022/07/24 01:23:37;;;;;;;8.82;5.80;;;15.80;99.90;;;;;;5073020;28;20036;-79
2022/07/24 01:26:05;;;;;;;8.00;6.20;;;15.80;99.90;;;;;;5073074;28;20040;-79
2022/07/24 01:28:31;;;;;;;7.95;5.43;;;15.80;99.90;;;;;;5073446;28;20543;-79
2022/07/24 01:30:57;;;;;;;8.80;5.97;;;15.70;99.90;;;;;;5073123;28;20123;-79
2022/07/24 01:33:22;;;;;;;8.85;5.97;;;15.70;99.90;;;;;;5056259;28;20068;-79
2022/07/24 01:35:48;;;;;;;12.57;6.13;;;15.70;99.90;;;;;;5073083;28;20032;-79
2022/07/24 01:38:14;;;;;;;8.00;5.43;;;15.70;99.90;;;;;;5091011;28;20131;-79
2022/07/24 01:40:40;;;;;;;9.10;5.60;;;15.70;99.90;;;;;;5055821;28;20035;-79
2022/07/24 01:43:06;;;;;;;10.70;5.50;;;15.70;99.90;;;;;;5073168;28;20051;-79
2022/07/24 01:45:32;;;;;;;7.80;5.97;;;15.70;99.90;;;;;;5056351;28;20036;-79
2022/07/24 01:47:58;;;;;;;7.75;5.63;;;15.70;99.90;;;;;;5056161;28;20032;-79
2022/07/24 01:50:24;;;;;;;7.38;5.05;;;15.70;99.90;;;;;;5072956;28;20063;-79
2022/07/24 01:52:49;;;;;;;7.07;5.47;;;15.70;99.90;;;;;;5056967;28;20068;-79
2022/07/24 01:55:15;;;;;;;8.35;6.15;;;15.70;99.90;;;;;;5060137;28;20448;-79
2022/07/24 01:57:41;;;;;;;13.07;6.05;;;15.70;99.90;;;;;;5076610;28;20040;-79
2022/07/24 02:00:14;;;;;;;10.98;6.55;;;15.60;99.90;;;;;;5094689;28;20043;-79
2022/07/24 02:02:41;;;;;;;10.55;5.90;;;15.60;99.90;;;;;;5076585;28;20086;-79
2022/07/24 02:05:08;;;;;;;7.65;5.88;;;15.60;99.90;;;;;;5076858;28;20055;-79
2022/07/24 02:07:34;;;;;;;7.35;5.60;;;15.60;99.90;;;;;;5077221;28;20048;-79
2022/07/24 02:10:01;;;;;;;10.23;5.88;;;15.60;99.90;;;;;;5076426;28;20539;-79
2022/07/24 02:12:26;;;;;;;8.23;5.78;;;15.60;99.90;;;;;;5076559;28;20044;-79
2022/07/24 02:14:52;;;;;;;8.52;5.57;;;15.60;99.90;;;;;;5076460;28;20506;-79
2022/07/24 02:17:17;;;;;;;7.93;5.82;;;15.60;99.90;;;;;;5076115;28;20040;-79
2022/07/24 02:19:43;;;;;;;8.70;6.07;;;15.60;99.90;;;;;;5075669;28;20101;-79
2022/07/24 02:22:08;;;;;;;8.25;5.25;;;15.60;99.90;;;;;;5076287;28;20182;-79
2022/07/24 02:24:34;;;;;;;8.55;5.53;;;15.60;99.90;;;;;;5060064;28;20032;-79
2022/07/24 02:27:00;;;;;;;9.55;5.88;;;15.60;99.90;;;;;;5075861;28;20084;-79
2022/07/24 02:29:26;;;;;;;8.93;5.57;;;15.60;99.90;;;;;;5075974;28;20032;-79
2022/07/24 02:31:52;;;;;;;8.35;6.25;;;15.60;99.90;;;;;;5076062;28;20560;-79
2022/07/24 02:34:18;;;;;;;8.95;6.32;;;15.50;99.90;;;;;;5076693;28;20048;-79
2022/07/24 02:36:43;;;;;;;9.48;6.40;;;15.60;99.90;;;;;;5076371;28;20160;-79
2022/07/24 02:39:09;;;;;;;8.30;5.47;;;15.60;99.90;;;;;;5076074;28;20036;-79
2022/07/24 02:41:34;;;;;;;8.00;5.28;;;15.50;99.90;;;;;;5059507;28;20044;-80
2022/07/24 02:44:00;;;;;;;7.47;5.55;;;15.50;99.90;;;;;;5094292;28;20075;-81
2022/07/24 02:46:25;;;;;;;12.25;5.45;;;15.50;99.90;;;;;;5094623;28;20064;-80
2022/07/24 02:48:51;;;;;;;7.75;5.88;;;15.60;99.90;;;;;;5076027;28;20039;-81
2022/07/24 02:51:17;;;;;;;10.90;6.78;;;15.50;99.90;;;;;;5076298;28;20047;-80
2022/07/24 02:53:42;;;;;;;7.72;5.20;;;15.50;99.90;;;;;;5076201;28;20556;-81
2022/07/24 02:56:08;;;;;;;7.85;5.43;;;15.50;99.90;;;;;;5094258;28;20032;-80
2022/07/24 02:58:34;;;;;;;8.43;6.18;;;15.50;99.90;;;;;;5059774;28;20093;-81
2022/07/24 03:01:00;;;;;;;7.38;5.50;;;15.50;99.90;;;;;;5075519;28;20072;-81
2022/07/24 03:03:26;;;;;;;7.57;5.43;;;15.50;99.90;;;;;;5076215;28;20079;-80
2022/07/24 03:05:51;;;;;;;7.55;5.75;;;15.40;99.90;;;;;;5075393;28;20048;-81
2022/07/24 03:08:17;;;;;;;7.07;5.72;;;15.40;99.90;;;;;;5076287;28;20067;-80
2022/07/24 03:10:42;;;;;;;7.90;5.95;;;15.40;99.90;;;;;;5059575;28;20086;-81
2022/07/24 03:13:08;;;;;;;9.18;5.85;;;15.40;99.90;;;;;;5076275;28;20039;-81
2022/07/24 03:15:34;;;;;;;7.25;5.53;;;15.40;99.90;;;;;;5076038;28;20093;-81
2022/07/24 03:18:00;;;;;;;8.60;6.50;;;15.40;99.90;;;;;;5076129;28;20470;-81
2022/07/24 03:20:28;;;;;;;10.98;6.47;;;15.40;99.90;;;;;;5059317;28;20575;-80
2022/07/24 03:22:54;;;;;;;11.05;6.45;;;15.30;99.90;;;;;;5076009;28;20386;-81
2022/07/24 03:25:20;;;;;;;7.70;6.07;;;15.30;99.90;;;;;;5076065;28;20040;-80
2022/07/24 03:27:47;;;;;;;12.23;6.32;;;15.30;99.90;;;;;;5075561;28;20040;-80
2022/07/24 03:30:14;;;;;;;10.77;5.97;;;15.30;99.90;;;;;;5075581;28;20036;-81
2022/07/24 03:32:40;;;;;;;10.63;7.25;;;15.20;99.90;;;;;;5075876;28;20230;-80
2022/07/24 03:35:07;;;;;;;7.65;5.80;;;15.30;99.90;;;;;;5059957;28;20075;-81
2022/07/24 03:37:33;;;;;;;8.82;6.20;;;15.20;99.90;;;;;;5075965;28;20354;-80
2022/07/24 03:39:59;;;;;;;7.65;5.57;;;15.30;99.90;;;;;;5058909;28;20036;-81
2022/07/24 03:42:24;;;;;;;7.88;6.28;;;15.30;99.90;;;;;;5075447;28;20547;-80
2022/07/24 03:44:50;;;;;;;10.48;6.78;;;15.40;99.90;;;;;;5058616;28;20063;-80
2022/07/24 03:47:16;;;;;;;9.55;7.20;;;15.20;99.90;;;;;;5075276;28;20036;-81
2022/07/24 03:49:41;;;;;;;9.02;6.97;;;15.30;99.90;;;;;;5074807;28;20094;-81
2022/07/24 03:52:07;;;;;;;11.52;6.60;;;15.30;99.90;;;;;;5076129;28;20105;-81
2022/07/24 03:54:33;;;;;;;9.27;6.30;;;15.30;99.90;;;;;;5076023;28;20044;-81
2022/07/24 03:56:58;;;;;;;11.02;6.75;;;15.40;99.90;;;;;;5093894;28;20071;-80
2022/07/24 03:59:24;;;;;;;9.63;5.90;;;15.40;99.90;;;;;;5059102;28;20071;-81
2022/07/24 04:01:49;;;;;;;9.55;6.03;;;15.40;99.90;;;;;;5074616;28;20040;-80
2022/07/24 04:04:15;;;;;;;9.23;6.20;;;15.40;99.90;;;;;;5075003;28;20089;-80
2022/07/24 04:06:41;;;;;;;8.05;6.25;;;15.50;99.90;;;;;;5075913;28;20044;-81
2022/07/24 04:09:07;;;;;;;10.15;6.85;;;15.50;99.90;;;;;;5059831;28;20036;-80
2022/07/24 04:11:33;;;;;;;10.07;6.55;;;15.50;99.90;;;;;;5093607;28;20052;-80
2022/07/24 04:13:59;;;;;;;9.18;6.25;;;15.60;99.90;;;;;;5059114;28;20152;-81
2022/07/24 04:16:25;;;;;;;10.25;7.32;;;15.50;99.90;;;;;;5074722;28;20046;-81
2022/07/24 04:18:50;;;;;;;9.13;6.57;;;15.50;99.90;;;;;;5059483;28;20087;-80
2022/07/24 04:21:16;;;;;;;14.07;7.55;;;15.60;99.90;;;;;;5058821;28;20052;-81
2022/07/24 04:23:42;;;;;;;10.80;6.97;;;15.60;99.90;;;;;;5074979;28;20496;-81
2022/07/24 04:26:08;;;;;;;9.43;6.90;;;15.60;99.90;;;;;;5058500;28;20044;-81
2022/07/24 04:28:33;;;;;;;9.27;6.50;;;15.70;99.90;;;;;;5092347;28;20043;-80
2022/07/24 04:30:59;;;;;;;11.32;6.50;;;15.70;99.90;;;;;;5074175;28;20415;-81
2022/07/24 04:33:25;;;;;;;12.50;6.30;;;15.60;99.90;;;;;;5057792;28;20047;-80
2022/07/24 04:35:50;;;;;;;8.80;5.72;;;15.70;99.90;;;;;;5057544;28;20039;-80
2022/07/24 04:38:16;;;;;;;9.50;6.30;;;15.70;99.90;;;;;;5057600;28;20043;-81
2022/07/24 04:40:43;;;;;;;10.88;6.65;;;15.70;99.90;;;;;;5057657;28;20044;-80
2022/07/24 04:43:09;;;;;;;8.75;6.50;;;15.80;99.90;;;;;;5057709;28;20119;-81
2022/07/24 04:45:34;;;;;;;10.15;6.75;;;15.80;99.90;;;;;;5093084;28;20253;-81
2022/07/24 04:48:00;;;;;;;7.78;6.00;;;15.90;99.90;;;;;;5059616;28;20047;-81
2022/07/24 04:50:26;;;;;;;9.32;6.50;;;15.90;99.90;;;;;;5076249;28;20046;-81
2022/07/24 04:52:51;;;;;;;16.75;7.07;;;16.00;99.90;;;;;;5076376;28;20043;-81
2022/07/24 04:55:17;;;;;;;7.90;6.25;;;16.10;99.90;;;;;;5075636;28;20403;-80
2022/07/24 04:57:43;;;;;;;10.68;6.75;;;16.20;99.90;;;;;;5058970;28;20043;-81
2022/07/24 05:00:11;;;;;;;8.85;6.03;;;16.20;99.90;;;;;;5076248;28;20533;-81
2022/07/24 05:02:37;;;;;;;10.00;7.07;;;16.30;99.90;;;;;;5095024;28;20138;-81
2022/07/24 05:05:03;;;;;;;9.45;6.80;;;16.30;99.90;;;;;;5076391;28;20502;-81
2022/07/24 05:07:29;;;;;;;8.75;7.05;;;16.40;99.90;;;;;;5076317;28;20047;-81
2022/07/24 05:09:55;;;;;;;11.18;7.05;;;16.50;99.90;;;;;;5058051;28;20040;-80
2022/07/24 05:12:20;;;;;;;9.68;6.80;;;16.50;99.90;;;;;;5074890;28;20123;-81
2022/07/24 05:14:46;;;;;;;11.82;7.43;;;16.60;99.90;;;;;;5076805;28;20036;-80
2022/07/24 05:17:11;;;;;;;11.77;7.30;;;16.70;99.90;;;;;;5113057;28;20054;-80
2022/07/24 05:19:37;;;;;;;11.32;7.60;;;16.90;99.90;;;;;;5095271;28;20032;-80
2022/07/24 05:22:04;;;;;;;9.45;6.70;;;17.40;99.90;;;;;;5073934;28;20122;-80
2022/07/24 05:24:29;;;;;;;7.57;6.55;;;18.00;99.90;;;;;;5073050;28;20118;-81
2022/07/24 05:26:55;;;;;;;8.27;7.25;;;18.50;99.90;;;;;;5073411;28;20430;-80
2022/07/24 05:29:21;;;;;;;10.02;7.22;;;18.80;99.90;;;;;;5076434;28;20540;-81
2022/07/24 05:31:46;;;;;;;11.13;7.55;;;19.20;99.90;;;;;;5077217;28;20119;-81
2022/07/24 05:34:12;;;;;;;8.55;6.30;;;19.50;99.90;;;;;;5076901;28;20089;-81
2022/07/24 05:36:39;;;;;;;11.02;6.55;;;19.70;99.90;;;;;;5061052;28;20523;-81
2022/07/24 05:39:05;;;;;;;11.38;6.85;;;19.70;99.90;;;;;;5060555;28;20082;-81
2022/07/24 05:41:31;;;;;;;10.70;7.40;;;19.40;99.90;;;;;;5076649;28;20131;-81
2022/07/24 05:43:56;;;;;;;8.85;6.38;;;19.10;99.90;;;;;;5060047;28;20139;-81
2022/07/24 05:46:22;;;;;;;9.18;7.78;;;19.00;99.90;;;;;;5076432;28;20051;-81
2022/07/24 05:48:48;;;;;;;10.90;7.65;;;19.10;99.90;;;;;;5076778;28;20036;-80
2022/07/24 05:51:13;;;;;;;10.20;7.10;;;19.50;99.90;;;;;;5059731;28;20048;-81
2022/07/24 05:53:39;;;;;;;10.65;7.00;;;20.10;99.90;;;;;;5076699;28;20500;-81
2022/07/24 05:56:05;;;;;;;11.35;6.97;;;20.60;99.90;;;;;;5076467;28;20395;-81
2022/07/24 05:58:30;;;;;;;9.65;6.55;;;21.10;99.90;;;;;;5076705;28;20101;-81
2022/07/24 06:00:56;;;;;;;11.23;7.18;;;21.50;99.90;;;;;;5059550;28;20042;-81
2022/07/24 06:03:22;;;;;;;12.23;7.43;;;21.90;99.90;;;;;;5094418;28;20115;-80
2022/07/24 06:05:47;;;;;;;10.77;7.97;;;22.10;99.90;;;;;;5077781;28;20050;-81
2022/07/24 06:08:13;;;;;;;13.80;8.00;;;22.40;99.90;;;;;;5076646;28;20071;-81
2022/07/24 06:10:39;;;;;;;11.75;7.47;;;22.70;99.90;;;;;;5076490;28;20040;-81
2022/07/24 06:13:04;;;;;;;9.55;7.45;;;22.90;99.90;;;;;;5095642;28;20054;-80
2022/07/24 06:15:30;;;;;;;11.10;7.55;;;23.10;99.90;;;;;;5077191;28;20110;-81
2022/07/24 06:17:56;;;;;;;10.57;7.80;;;23.30;99.90;;;;;;5077496;28;20165;-81
2022/07/24 06:20:21;;;;;;;13.73;8.05;;;23.50;99.90;;;;;;5077061;28;20043;-82
2022/07/24 06:22:47;;;;;;;11.90;7.93;;;23.60;99.90;;;;;;5094294;28;20044;-81
2022/07/24 06:25:14;;;;;;;14.98;7.90;;;23.70;99.90;;;;;;5076036;28;20040;-81
2022/07/24 06:27:44;;;;;;;10.23;8.23;;;23.80;99.90;;;;;;5094371;28;20115;-81
2022/07/24 06:30:13;;;;;;;10.60;7.82;;;24.00;99.90;;;;;;5076322;28;20040;-81
2022/07/24 06:32:40;;;;;;;13.07;8.80;;;24.10;99.90;;;;;;5059783;28;20051;-83
2022/07/24 06:35:06;;;;;;;9.38;8.35;;;24.20;99.90;;;;;;5075873;28;20047;-81
2022/07/24 06:37:32;;;;;;;11.27;9.07;;;24.40;99.90;;;;;;5075875;28;20043;-81
2022/07/24 06:39:58;;;;;;;10.95;8.15;;;24.50;99.90;;;;;;5074517;28;20051;-81
2022/07/24 06:42:23;;;;;;;12.68;9.20;;;24.70;99.90;;;;;;5095109;28;20071;-81
2022/07/24 06:44:49;;;;;;;11.63;8.88;;;24.70;99.90;;;;;;5094705;28;20070;-80
2022/07/24 06:47:15;;;;;;;9.90;8.65;;;25.00;99.90;;;;;;5076066;28;20046;-81
2022/07/24 06:49:40;;;;;;;13.13;9.35;;;25.20;99.90;;;;;;5075962;28;20040;-81
2022/07/24 06:52:06;;;;;;;11.70;9.65;;;25.30;99.90;;;;;;5076205;28;20036;-81
2022/07/24 06:54:31;;;;;;;12.85;9.48;;;25.50;99.90;;;;;;5094532;28;20039;-81
2022/07/24 06:56:57;;;;;;;11.65;9.63;;;25.50;99.90;;;;;;5076547;28;20561;-81
2022/07/24 06:59:23;;;;;;;12.65;9.57;;;25.60;99.90;;;;;;5075795;28;20494;-81
2022/07/24 07:01:48;;;;;;;10.20;9.20;;;25.80;99.90;;;;;;5075701;28;20040;-81
2022/07/24 07:04:14;;;;;;;11.40;8.80;;;25.90;99.90;;;;;;5094019;28;20096;-81
2022/07/24 07:06:40;;;;;;;12.82;8.95;;;26.10;99.90;;;;;;5094009;28;20455;-81
2022/07/24 07:09:05;;;;;;;13.95;9.43;;;26.20;99.90;;;;;;5058680;28;20040;-81
2022/07/24 07:11:31;;;;;;;13.65;9.07;;;26.30;99.90;;;;;;5075534;28;20356;-81
2022/07/24 07:13:56;;;;;;;17.20;11.18;;;26.30;99.90;;;;;;5075353;28;20075;-81
2022/07/24 07:16:22;;;;;;;12.90;9.27;;;26.40;99.90;;;;;;5093483;28;20032;-81
2022/07/24 07:18:49;;;;;;;15.27;9.75;;;26.40;99.90;;;;;;5093577;28;20032;-81
2022/07/24 07:21:14;;;;;;;12.65;9.75;;;26.50;99.90;;;;;;5093082;28;20044;-81
2022/07/24 07:23:40;;;;;;;12.00;9.23;;;26.50;99.90;;;;;;5075467;28;20072;-81
2022/07/24 07:26:06;;;;;;;14.18;8.80;;;26.60;99.90;;;;;;5075637;28;20123;-81
2022/07/24 07:28:31;;;;;;;10.85;7.70;;;26.70;99.80;;;;;;5075577;28;20032;-82
2022/07/24 07:30:57;;;;;;;11.93;7.78;;;26.70;98.90;;;;;;5075265;28;20071;-81
2022/07/24 07:33:23;;;;;;;11.02;8.52;;;26.80;97.60;;;;;;5075438;28;20040;-81
2022/07/24 07:35:49;;;;;;;10.85;6.90;;;26.90;97.50;;;;;;5074813;28;20075;-80
2022/07/24 07:38:15;;;;;;;8.63;6.18;;;27.00;97.00;;;;;;5090721;28;20036;-80
2022/07/24 07:40:41;;;;;;;8.45;6.25;;;27.20;96.20;;;;;;5072461;28;20051;-80
2022/07/24 07:43:06;;;;;;;7.32;6.25;;;27.40;94.60;;;;;;5066779;28;20032;-80
2022/07/24 07:45:32;;;;;;;7.80;5.95;;;27.50;93.60;;;;;;5055161;28;20032;-80
2022/07/24 07:47:58;;;;;;;7.93;5.80;;;27.50;93.40;;;;;;5057886;28;20044;-80
2022/07/24 07:50:24;;;;;;;6.82;4.97;;;27.60;92.50;;;;;;5054887;28;20120;-80
2022/07/24 07:52:49;;;;;;;9.80;5.20;;;27.80;92.30;;;;;;5054658;28;20492;-81
2022/07/24 07:55:15;;;;;;;6.47;5.32;;;28.00;92.00;;;;;;5037903;28;20071;-80
2022/07/24 07:57:43;;;;;;;6.75;4.88;;;28.10;91.60;;;;;;5057629;28;20365;-80
2022/07/24 08:00:10;;;;;;;6.72;4.70;;;28.20;90.20;;;;;;5073920;28;20044;-80
2022/07/24 08:02:35;;;;;;;6.07;3.95;;;28.20;87.30;;;;;;5074118;28;20041;-80
2022/07/24 08:05:01;;;;;;;5.72;3.70;;;28.10;84.00;;;;;;5039651;28;20043;-80
2022/07/24 08:07:26;;;;;;;5.95;3.88;;;28.20;81.30;;;;;;5040164;28;20036;-80
2022/07/24 08:09:52;;;;;;;5.13;3.80;;;28.20;80.70;;;;;;5055223;28;20044;-79
2022/07/24 08:12:18;;;;;;;6.50;3.50;;;28.10;82.60;;;;;;5056493;28;20424;-77
2022/07/24 08:14:43;;;;;;;4.45;3.75;;;28.00;82.30;;;;;;5054596;28;20063;-77
2022/07/24 08:17:09;;;;;;;4.85;4.18;;;28.00;81.70;;;;;;5084430;28;20039;-76
2022/07/24 08:19:34;;;;;;;7.25;4.35;;;28.00;82.90;;;;;;5057113;28;20693;-76
2022/07/24 08:22:00;;;;;;;5.07;3.40;;;28.20;82.60;;;;;;5070105;28;20045;-77
2022/07/24 08:24:26;;;;;;;6.00;3.83;;;28.40;81.70;;;;;;5091177;28;20040;-77
2022/07/24 08:26:52;;;;;;;7.55;3.92;;;28.50;81.30;;;;;;5091049;28;20504;-77
2022/07/24 08:29:17;;;;;;;5.15;2.85;;;28.70;82.20;;;;;;5073245;28;20142;-77
2022/07/24 08:31:43;;;;;;;3.40;2.70;;;29.00;79.40;;;;;;5073211;28;20122;-77
2022/07/24 08:34:09;;;;;;;4.70;2.97;;;29.20;78.90;;;;;;5070121;28;20456;-77
2022/07/24 08:36:34;;;;;;;3.72;2.60;;;28.90;78.50;;;;;;5071629;28;20123;-77
2022/07/24 08:39:00;;;;;;;3.45;2.63;;;28.50;78.00;;;;;;5050903;28;20399;-77
2022/07/24 08:41:32;;;;;;;3.22;2.22;;;28.20;77.90;;;;;;5072475;28;20127;-77
2022/07/24 08:43:58;;;;;;;2.80;2.13;;;28.40;73.00;;;;;;5073225;28;20068;-77
2022/07/24 08:46:26;;;;;;;4.05;1.95;;;28.40;75.30;;;;;;5056227;28;20032;-78
2022/07/24 08:48:53;;;;;;;3.92;1.83;;;28.50;74.80;;;;;;5056271;28;20036;-77
2022/07/24 08:51:19;;;;;;;3.92;1.88;;;28.40;73.30;;;;;;5052885;28;20075;-77
2022/07/24 08:53:47;;;;;;;2.42;2.20;;;28.50;72.50;;;;;;5091386;28;20040;-77
2022/07/24 08:56:13;;;;;;;2.60;1.73;;;28.60;73.10;;;;;;5067460;28;20083;-77
2022/07/24 08:58:40;;;;;;;2.90;1.60;;;28.60;73.90;;;;;;5062540;28;20041;-77
2022/07/24 09:01:07;;;;;;;4.07;1.90;;;28.40;73.40;;;;;;5055332;28;20529;-77
2022/07/24 09:03:44;;;;;;;3.00;1.52;;;28.40;73.00;;;;;;5072433;28;20044;-77
2022/07/24 09:06:11;;;;;;;2.00;1.88;;;28.40;71.60;;;;;;5072602;28;20044;-77
2022/07/24 09:08:41;;;;;;;4.47;2.03;;;28.20;73.10;;;;;;5072819;28;20093;-78
2022/07/24 09:11:09;;;;;;;3.53;2.08;;;28.30;73.10;;;;;;5072302;28;20040;-77
2022/07/24 09:16:25;;;;;;;5.50;2.00;;;28.50;76.20;;;;;;5073609;28;20081;-80
2022/07/24 09:19:03;;;;;;;2.35;2.15;;;28.60;73.50;;;;;;5089336;28;20040;-79
2022/07/24 09:21:33;;;;;;;2.22;1.90;;;28.80;74.00;;;;;;5051305;28;20395;-79
2022/07/24 09:24:02;;;;;;;2.20;2.00;;;29.00;73.50;;;;;;5057528;28;20047;-79
2022/07/24 09:27:03;;;;;;;3.80;1.55;;;29.00;73.20;;;;;;5057010;28;20047;-79
2022/07/24 09:29:29;;;;;;;1.80;1.58;;;29.10;69.70;;;;;;4974127;28;20440;-81
2022/07/24 09:31:57;;;;;;;1.90;1.58;;;28.90;72.30;;;;;;5051178;28;20056;-81
2022/07/24 09:34:25;;;;;;;3.85;1.85;;;28.90;71.20;;;;;;5072604;28;20039;-81
2022/07/24 09:37:01;;;;;;;2.88;1.52;;;29.00;73.40;;;;;;5058083;28;20047;-80
2022/07/24 09:39:29;;;;;;;2.70;1.65;;;29.20;71.50;;;;;;5037431;28;20819;-80
2022/07/24 09:41:56;;;;;;;3.28;1.55;;;29.30;71.00;;;;;;5071024;28;20123;-80
2022/07/24 09:44:25;;;;;;;1.73;1.27;;;29.20;69.40;;;;;;5073783;28;20032;-79
2022/07/24 09:47:00;;;;;;;2.58;1.40;;;29.00;68.20;;;;;;5074055;28;20065;-80
2022/07/24 09:49:28;;;;;;;1.70;1.33;;;28.80;67.40;;;;;;5074996;28;20044;-79
2022/07/24 09:52:12;;;;;;;1.75;1.58;;;28.70;71.30;;;;;;5081618;28;20103;-80
2022/07/24 09:54:44;;;;;;;3.17;1.77;;;28.60;70.20;;;;;;5105154;28;20067;-80
2022/07/24 09:57:19;;;;;;;2.80;1.60;;;28.50;70.80;;;;;;5080276;28;20093;-79
2022/07/24 09:59:52;;;;;;;1.98;1.50;;;28.80;74.00;;;;;;5084067;28;20044;-80
2022/07/24 10:02:23;;;;;;;1.60;1.50;;;29.00;70.80;;;;;;5071608;28;20052;-81
2022/07/24 10:04:51;;;;;;;2.38;1.85;;;29.30;67.00;;;;;;5071921;28;20075;-80
2022/07/24 10:07:19;;;;;;;2.83;1.92;;;29.60;68.10;;;;;;5055161;28;20120;-81
2022/07/24 10:09:54;;;;;;;1.98;1.70;;;29.80;66.50;;;;;;5036242;28;20040;-81
2022/07/24 10:12:25;;;;;;;2.83;2.00;;;29.90;63.10;;;;;;5062400;28;20064;-81
2022/07/24 10:14:54;;;;;;;2.83;2.13;;;29.80;63.10;;;;;;5074870;28;20048;-81
2022/07/24 10:17:22;;;;;;;3.83;1.90;;;29.80;63.10;;;;;;5075722;28;20044;-81
2022/07/24 10:19:49;;;;;;;3.40;1.80;;;29.80;63.30;;;;;;5057708;28;20059;-81
2022/07/24 10:22:17;;;;;;;2.55;1.65;;;30.00;63.10;;;;;;5073410;28;20576;-81
2022/07/24 10:25:05;;;;;;;2.90;2.00;;;30.20;62.50;;;;;;5073937;28;20040;-80
2022/07/24 10:27:33;;;;;;;3.45;2.17;;;30.30;61.80;;;;;;5062904;28;20046;-80
2022/07/24 10:30:05;;;;;;;2.25;1.80;;;30.30;61.20;;;;;;5085101;28;20093;-81
2022/07/24 10:32:33;;;;;;;2.17;1.92;;;30.30;59.20;;;;;;5060086;28;20394;-82
2022/07/24 10:35:21;;;;;;;3.42;1.90;;;30.10;58.90;;;;;;5060016;28;20039;-81
2022/07/24 10:37:59;;;;;;;2.65;2.08;;;30.10;59.60;;;;;;5059056;28;20143;-81
2022/07/24 10:40:50;;;;;;;3.35;2.10;;;30.00;57.30;;;;;;5059327;28;20472;-80
2022/07/24 10:43:18;;;;;;;2.90;1.90;;;29.80;57.60;;;;;;5076593;28;20047;-81
2022/07/24 10:46:07;;;;;;;3.17;1.85;;;29.90;58.10;;;;;;5076603;28;20686;-81
2022/07/24 10:48:39;;;;;;;2.40;2.20;;;30.00;60.20;;;;;;5058874;28;20533;-81
2022/07/24 10:51:06;;;;;;;5.38;2.15;;;30.10;59.50;;;;;;5075079;28;20043;-80
2022/07/24 10:53:45;;;;;;;2.17;1.67;;;30.10;60.50;;;;;;5040315;28;20472;-80
2022/07/24 10:56:38;;;;;;;1.95;1.52;;;30.10;60.50;;;;;;5052105;28;20039;-80
2022/07/24 10:59:08;;;;;;;2.33;1.77;;;30.10;59.80;;;;;;5075949;28;20126;-80
2022/07/24 11:01:45;;;;;;;1.88;1.75;;;30.00;61.50;;;;;;5056231;28;20098;-80
2022/07/24 11:04:31;;;;;;;2.28;2.03;;;30.00;60.00;;;;;;5057112;28;20123;-80
2022/07/24 11:07:12;;;;;;;2.88;2.00;;;29.80;61.70;;;;;;5092230;28;20048;-80
2022/07/24 11:09:58;;;;;;;2.88;2.03;;;29.90;61.10;;;;;;5068990;28;20028;-80
2022/07/24 11:12:32;;;;;;;4.20;2.03;;;30.10;63.10;;;;;;5074043;28;20048;-80
2022/07/24 11:15:54;;;;;;;2.78;1.90;;;30.10;62.20;;;;;;5076072;28;20047;-80
2022/07/24 11:17:47;;;;;;;3.45;2.30;;;30.20;62.30;;;;;;5074787;28;20052;-80
2022/07/24 11:20:21;;;;;;;3.70;2.25;;;30.40;61.10;;;;;;5055109;28;20046;-81
2022/07/24 11:22:55;;;;;;;2.78;2.03;;;30.30;60.90;;;;;;5073519;28;20036;-80
2022/07/24 11:25:27;;;;;;;2.10;1.88;;;30.30;59.10;;;;;;5074625;28;20047;-81
2022/07/24 11:28:13;;;;;;;2.40;2.17;;;30.10;58.60;;;;;;5088916;28;20674;-80
2022/07/24 11:30:44;;;;;;;2.75;2.28;;;30.20;59.90;;;;;;5086087;28;20031;-80
2022/07/24 11:33:11;;;;;;;3.03;2.20;;;30.30;59.30;;;;;;5049695;28;20106;-81
2022/07/24 11:35:38;;;;;;;3.92;2.30;;;30.20;59.80;;;;;;5046921;28;20056;-80
2022/07/24 11:38:07;;;;;;;3.83;2.33;;;30.30;60.60;;;;;;5092460;28;20089;-80
2022/07/24 11:40:34;;;;;;;5.00;2.35;;;30.30;61.90;;;;;;5068826;28;20032;-82
2022/07/24 11:43:02;;;;;;;2.88;2.22;;;30.40;60.90;;;;;;5055624;28;20060;-81
2022/07/24 11:45:28;;;;;;;3.97;3.10;;;30.70;60.70;;;;;;5057656;28;20039;-80
2022/07/24 11:47:54;;;;;;;5.90;2.55;;;30.80;60.80;;;;;;5094055;28;20032;-81
2022/07/24 11:50:26;;;;;;;4.53;1.83;;;30.80;59.70;;;;;;5060547;28;20036;-81
2022/07/24 11:52:53;;;;;;;3.88;2.30;;;30.70;59.50;;;;;;5094013;28;20040;-80
2022/07/24 11:55:21;;;;;;;4.97;2.30;;;30.70;60.60;;;;;;5093603;28;20122;-80
2022/07/24 11:57:49;;;;;;;2.45;2.08;;;30.70;61.10;;;;;;5065263;28;20127;-80
2022/07/24 12:00:23;;;;;;;2.50;2.30;;;30.80;59.10;;;;;;5074450;28;20046;-81
2022/07/24 12:02:51;;;;;;;4.10;2.63;;;30.80;59.30;;;;;;5092650;28;20467;-81
2022/07/24 12:05:43;;;;;;;2.88;2.33;;;30.70;59.70;;;;;;5070390;28;20086;-81
2022/07/24 12:08:26;;;;;;;2.80;2.00;;;30.70;58.60;;;;;;5089502;28;20040;-81
2022/07/24 12:10:56;;;;;;;3.50;2.22;;;30.70;59.70;;;;;;5093440;28;20044;-80
2022/07/24 12:13:22;;;;;;;2.47;2.27;;;30.70;58.30;;;;;;5075448;28;20083;-80
2022/07/24 12:15:48;;;;;;;4.90;2.50;;;30.70;57.80;;;;;;5069176;28;20491;-80
2022/07/24 12:18:13;;;;;;;3.70;2.22;;;30.90;57.90;;;;;;5065963;28;20047;-79
2022/07/24 12:20:44;;;;;;;4.97;2.15;;;30.70;57.60;;;;;;5074804;28;20040;-80
2022/07/24 12:23:15;;;;;;;2.83;2.00;;;30.70;56.10;;;;;;5075051;28;20047;-80
2022/07/24 12:25:42;;;;;;;2.38;2.05;;;30.70;55.30;;;;;;5074121;28;20059;-80
2022/07/24 12:28:09;;;;;;;4.75;2.05;;;30.70;55.20;;;;;;5074426;28;20044;-80
2022/07/24 12:30:43;;;;;;;3.60;1.95;;;30.70;55.60;;;;;;5069997;28;20051;-80
2022/07/24 12:33:22;;;;;;;1.92;1.80;;;30.70;55.30;;;;;;5071213;28;20067;-80
2022/07/24 12:36:11;;;;;;;2.38;2.15;;;30.60;53.80;;;;;;5092267;28;20056;-79
2022/07/24 12:38:40;;;;;;;3.25;1.85;;;30.50;51.90;;;;;;5073832;28;20051;-79
2022/07/24 12:41:08;;;;;;;4.57;2.10;;;30.50;53.60;;;;;;5074995;28;20719;-80
2022/07/24 12:43:49;;;;;;;2.67;1.88;;;30.50;54.20;;;;;;5054197;28;20731;-79
2022/07/24 12:46:16;;;;;;;;;;;30.70;54.10;;;;;;5072452;28;20040;-79
2022/07/24 12:48:56;;;;;;;2.38;1.90;;;30.60;54.70;;;;;;5056304;28;19920;-79
2022/07/24 12:51:21;;;;;;;2.13;1.90;;;30.50;53.80;;;;;;5073846;28;20096;-81